sensor_id;sensor_type;location;lat;lon;timestamp;P1;durP1;ratioP1;P2;durP2;ratioP2
51459;SDS011;37534;39.772;2.718;2023-04-25T00:31:49;2.03;;;1.83;;
51459;SDS011;37534;39.772;2.718;2023-04-25T00:34:15;2.70;;;2.33;;
51459;SDS011;37534;39.772;2.718;2023-04-25T00:36:40;2.80;;;2.60;;
51459;SDS011;37534;39.772;2.718;2023-04-25T00:39:06;2.53;;;2.22;;
51459;SDS011;37534;39.772;2.718;2023-04-25T00:41:31;3.78;;;2.60;;
51459;SDS011;37534;39.772;2.718;2023-04-25T00:43:57;2.25;;;1.98;;
51459;SDS011;37534;39.772;2.718;2023-04-25T00:46:24;2.40;;;2.28;;
51459;SDS011;37534;39.772;2.718;2023-04-25T00:48:50;3.22;;;2.20;;
51459;SDS011;37534;39.772;2.718;2023-04-25T00:51:16;2.08;;;1.90;;
51459;SDS011;37534;39.772;2.718;2023-04-25T00:53:44;3.47;;;2.58;;
51459;SDS011;37534;39.772;2.718;2023-04-25T00:56:11;1.90;;;1.80;;
51459;SDS011;37534;39.772;2.718;2023-04-25T00:58:36;3.60;;;2.03;;
51459;SDS011;37534;39.772;2.718;2023-04-25T01:01:03;5.30;;;2.13;;
51459;SDS011;37534;39.772;2.718;2023-04-25T01:03:30;3.53;;;2.53;;
51459;SDS011;37534;39.772;2.718;2023-04-25T01:05:58;1.95;;;1.85;;
51459;SDS011;37534;39.772;2.718;2023-04-25T01:08:24;2.63;;;2.40;;
51459;SDS011;37534;39.772;2.718;2023-04-25T01:10:52;3.45;;;2.40;;
51459;SDS011;37534;39.772;2.718;2023-04-25T01:13:18;4.97;;;2.70;;
51459;SDS011;37534;39.772;2.718;2023-04-25T01:15:43;2.85;;;2.15;;
51459;SDS011;37534;39.772;2.718;2023-04-25T01:18:09;5.95;;;1.98;;
51459;SDS011;37534;39.772;2.718;2023-04-25T01:20:35;13.32;;;2.42;;
51459;SDS011;37534;39.772;2.718;2023-04-25T01:23:02;6.25;;;2.15;;
51459;SDS011;37534;39.772;2.718;2023-04-25T01:25:28;1.70;;;1.40;;
51459;SDS011;37534;39.772;2.718;2023-04-25T01:27:55;8.23;;;2.83;;
51459;SDS011;37534;39.772;2.718;2023-04-25T01:30:21;4.22;;;2.70;;
51459;SDS011;37534;39.772;2.718;2023-04-25T01:32:47;3.67;;;2.78;;
51459;SDS011;37534;39.772;2.718;2023-04-25T01:35:14;11.85;;;3.20;;
51459;SDS011;37534;39.772;2.718;2023-04-25T01:37:40;5.38;;;2.92;;
51459;SDS011;37534;39.772;2.718;2023-04-25T01:40:07;4.88;;;2.97;;
51459;SDS011;37534;39.772;2.718;2023-04-25T01:42:35;5.45;;;2.75;;
51459;SDS011;37534;39.772;2.718;2023-04-25T01:45:01;3.00;;;2.40;;
51459;SDS011;37534;39.772;2.718;2023-04-25T01:47:27;4.72;;;2.97;;
51459;SDS011;37534;39.772;2.718;2023-04-25T01:49:53;7.90;;;3.40;;
51459;SDS011;37534;39.772;2.718;2023-04-25T01:52:19;4.85;;;2.15;;
51459;SDS011;37534;39.772;2.718;2023-04-25T01:54:45;1.52;;;1.42;;
51459;SDS011;37534;39.772;2.718;2023-04-25T01:57:11;4.10;;;1.67;;
51459;SDS011;37534;39.772;2.718;2023-04-25T01:59:37;2.70;;;1.63;;
51459;SDS011;37534;39.772;2.718;2023-04-25T02:02:03;1.52;;;1.42;;
51459;SDS011;37534;39.772;2.718;2023-04-25T02:04:29;2.03;;;1.85;;
51459;SDS011;37534;39.772;2.718;2023-04-25T02:06:55;2.15;;;1.58;;
51459;SDS011;37534;39.772;2.718;2023-04-25T02:09:20;1.60;;;1.50;;
51459;SDS011;37534;39.772;2.718;2023-04-25T02:11:46;2.65;;;1.73;;
51459;SDS011;37534;39.772;2.718;2023-04-25T02:14:12;2.90;;;1.60;;
51459;SDS011;37534;39.772;2.718;2023-04-25T02:16:37;1.35;;;1.23;;
51459;SDS011;37534;39.772;2.718;2023-04-25T02:19:04;2.28;;;1.83;;
51459;SDS011;37534;39.772;2.718;2023-04-25T02:21:31;2.45;;;1.25;;
51459;SDS011;37534;39.772;2.718;2023-04-25T02:23:57;1.95;;;1.75;;
51459;SDS011;37534;39.772;2.718;2023-04-25T02:26:22;4.60;;;2.60;;
51459;SDS011;37534;39.772;2.718;2023-04-25T02:28:48;4.85;;;1.92;;
51459;SDS011;37534;39.772;2.718;2023-04-25T02:31:15;2.47;;;1.50;;
51459;SDS011;37534;39.772;2.718;2023-04-25T02:33:41;1.95;;;1.45;;
51459;SDS011;37534;39.772;2.718;2023-04-25T02:36:07;4.63;;;2.35;;
51459;SDS011;37534;39.772;2.718;2023-04-25T02:38:33;2.42;;;2.10;;
51459;SDS011;37534;39.772;2.718;2023-04-25T02:40:59;2.85;;;1.65;;
51459;SDS011;37534;39.772;2.718;2023-04-25T02:43:25;3.00;;;1.90;;
51459;SDS011;37534;39.772;2.718;2023-04-25T02:45:50;1.58;;;1.48;;
51459;SDS011;37534;39.772;2.718;2023-04-25T02:48:16;1.67;;;1.58;;
51459;SDS011;37534;39.772;2.718;2023-04-25T02:50:41;1.95;;;1.75;;
51459;SDS011;37534;39.772;2.718;2023-04-25T02:53:07;1.33;;;1.23;;
51459;SDS011;37534;39.772;2.718;2023-04-25T02:55:33;1.60;;;1.42;;
51459;SDS011;37534;39.772;2.718;2023-04-25T02:57:58;1.48;;;1.30;;
51459;SDS011;37534;39.772;2.718;2023-04-25T03:00:24;3.92;;;1.50;;
51459;SDS011;37534;39.772;2.718;2023-04-25T03:02:50;3.63;;;1.40;;
51459;SDS011;37534;39.772;2.718;2023-04-25T03:05:16;2.78;;;1.20;;
51459;SDS011;37534;39.772;2.718;2023-04-25T03:07:42;1.77;;;1.67;;
51459;SDS011;37534;39.772;2.718;2023-04-25T03:10:08;4.03;;;1.92;;
51459;SDS011;37534;39.772;2.718;2023-04-25T03:12:34;1.73;;;1.60;;
51459;SDS011;37534;39.772;2.718;2023-04-25T03:15:00;9.60;;;2.17;;
51459;SDS011;37534;39.772;2.718;2023-04-25T03:17:25;3.22;;;2.28;;
51459;SDS011;37534;39.772;2.718;2023-04-25T03:19:51;2.40;;;1.85;;
51459;SDS011;37534;39.772;2.718;2023-04-25T03:22:17;2.22;;;1.65;;
51459;SDS011;37534;39.772;2.718;2023-04-25T03:24:42;1.25;;;1.25;;
51459;SDS011;37534;39.772;2.718;2023-04-25T03:27:08;2.17;;;1.73;;
51459;SDS011;37534;39.772;2.718;2023-04-25T03:29:33;2.38;;;2.17;;
51459;SDS011;37534;39.772;2.718;2023-04-25T03:31:59;1.50;;;1.40;;
51459;SDS011;37534;39.772;2.718;2023-04-25T03:34:24;2.40;;;1.35;;
51459;SDS011;37534;39.772;2.718;2023-04-25T03:36:51;3.42;;;1.92;;
51459;SDS011;37534;39.772;2.718;2023-04-25T03:39:16;2.42;;;1.58;;
51459;SDS011;37534;39.772;2.718;2023-04-25T03:41:42;2.58;;;1.60;;
51459;SDS011;37534;39.772;2.718;2023-04-25T03:44:08;4.95;;;2.35;;
51459;SDS011;37534;39.772;2.718;2023-04-25T03:46:33;1.52;;;1.42;;
51459;SDS011;37534;39.772;2.718;2023-04-25T03:48:59;1.95;;;1.75;;
51459;SDS011;37534;39.772;2.718;2023-04-25T03:51:25;3.40;;;1.80;;
51459;SDS011;37534;39.772;2.718;2023-04-25T03:53:51;4.15;;;2.85;;
51459;SDS011;37534;39.772;2.718;2023-04-25T03:56:17;4.05;;;1.92;;
51459;SDS011;37534;39.772;2.718;2023-04-25T03:58:42;3.15;;;2.08;;
51459;SDS011;37534;39.772;2.718;2023-04-25T04:01:08;3.00;;;2.17;;
51459;SDS011;37534;39.772;2.718;2023-04-25T04:03:34;3.20;;;2.25;;
51459;SDS011;37534;39.772;2.718;2023-04-25T04:06:05;2.22;;;1.98;;
51459;SDS011;37534;39.772;2.718;2023-04-25T04:08:32;2.45;;;2.25;;
51459;SDS011;37534;39.772;2.718;2023-04-25T04:10:58;5.70;;;2.38;;
51459;SDS011;37534;39.772;2.718;2023-04-25T04:13:27;2.65;;;2.45;;
51459;SDS011;37534;39.772;2.718;2023-04-25T04:15:54;1.90;;;1.80;;
51459;SDS011;37534;39.772;2.718;2023-04-25T04:18:20;3.25;;;1.90;;
51459;SDS011;37534;39.772;2.718;2023-04-25T04:20:46;2.78;;;2.08;;
51459;SDS011;37534;39.772;2.718;2023-04-25T04:23:11;2.63;;;2.20;;
51459;SDS011;37534;39.772;2.718;2023-04-25T04:25:37;3.03;;;2.58;;
51459;SDS011;37534;39.772;2.718;2023-04-25T04:28:04;3.00;;;2.30;;
51459;SDS011;37534;39.772;2.718;2023-04-25T04:30:31;2.95;;;1.85;;
51459;SDS011;37534;39.772;2.718;2023-04-25T04:32:57;3.13;;;2.08;;
51459;SDS011;37534;39.772;2.718;2023-04-25T04:35:23;3.75;;;2.20;;
51459;SDS011;37534;39.772;2.718;2023-04-25T04:37:49;4.50;;;2.33;;
51459;SDS011;37534;39.772;2.718;2023-04-25T04:40:15;3.13;;;2.83;;
51459;SDS011;37534;39.772;2.718;2023-04-25T04:42:42;4.47;;;3.25;;
51459;SDS011;37534;39.772;2.718;2023-04-25T04:45:10;2.95;;;2.45;;
51459;SDS011;37534;39.772;2.718;2023-04-25T04:47:37;3.08;;;2.15;;
51459;SDS011;37534;39.772;2.718;2023-04-25T04:50:04;3.13;;;2.83;;
51459;SDS011;37534;39.772;2.718;2023-04-25T04:52:34;2.70;;;2.47;;
51459;SDS011;37534;39.772;2.718;2023-04-25T04:55:01;2.95;;;2.70;;
51459;SDS011;37534;39.772;2.718;2023-04-25T04:57:28;6.20;;;2.17;;
51459;SDS011;37534;39.772;2.718;2023-04-25T04:59:54;2.75;;;2.13;;
51459;SDS011;37534;39.772;2.718;2023-04-25T05:02:19;3.25;;;2.47;;
51459;SDS011;37534;39.772;2.718;2023-04-25T05:04:45;3.88;;;3.05;;
51459;SDS011;37534;39.772;2.718;2023-04-25T05:07:10;5.00;;;3.28;;
51459;SDS011;37534;39.772;2.718;2023-04-25T05:09:36;7.95;;;3.45;;
51459;SDS011;37534;39.772;2.718;2023-04-25T05:12:02;2.50;;;2.30;;
51459;SDS011;37534;39.772;2.718;2023-04-25T05:14:28;5.50;;;3.85;;
51459;SDS011;37534;39.772;2.718;2023-04-25T05:16:54;3.92;;;2.97;;
51459;SDS011;37534;39.772;2.718;2023-04-25T05:19:19;10.93;;;3.75;;
51459;SDS011;37534;39.772;2.718;2023-04-25T05:21:45;4.88;;;2.95;;
51459;SDS011;37534;39.772;2.718;2023-04-25T05:24:11;2.50;;;2.30;;
51459;SDS011;37534;39.772;2.718;2023-04-25T05:26:37;3.20;;;2.30;;
51459;SDS011;37534;39.772;2.718;2023-04-25T05:29:02;2.55;;;2.35;;
51459;SDS011;37534;39.772;2.718;2023-04-25T05:31:28;5.70;;;3.03;;
51459;SDS011;37534;39.772;2.718;2023-04-25T05:33:54;7.88;;;4.00;;
51459;SDS011;37534;39.772;2.718;2023-04-25T05:36:19;3.72;;;2.70;;
51459;SDS011;37534;39.772;2.718;2023-04-25T05:38:45;8.40;;;2.83;;
51459;SDS011;37534;39.772;2.718;2023-04-25T05:41:11;3.78;;;2.38;;
51459;SDS011;37534;39.772;2.718;2023-04-25T05:43:36;4.05;;;2.15;;
51459;SDS011;37534;39.772;2.718;2023-04-25T05:46:02;4.65;;;2.20;;
51459;SDS011;37534;39.772;2.718;2023-04-25T05:48:27;3.05;;;2.22;;
51459;SDS011;37534;39.772;2.718;2023-04-25T05:50:53;3.10;;;2.47;;
51459;SDS011;37534;39.772;2.718;2023-04-25T05:53:19;5.43;;;2.05;;
51459;SDS011;37534;39.772;2.718;2023-04-25T05:55:46;5.95;;;2.97;;
51459;SDS011;37534;39.772;2.718;2023-04-25T05:58:12;3.95;;;3.42;;
51459;SDS011;37534;39.772;2.718;2023-04-25T06:00:38;4.28;;;3.47;;
51459;SDS011;37534;39.772;2.718;2023-04-25T06:03:03;6.32;;;2.85;;
51459;SDS011;37534;39.772;2.718;2023-04-25T06:05:29;5.18;;;4.15;;
51459;SDS011;37534;39.772;2.718;2023-04-25T06:07:55;8.93;;;5.88;;
51459;SDS011;37534;39.772;2.718;2023-04-25T06:10:20;8.65;;;6.28;;
51459;SDS011;37534;39.772;2.718;2023-04-25T06:12:46;11.68;;;9.48;;
51459;SDS011;37534;39.772;2.718;2023-04-25T06:15:12;15.73;;;12.00;;
51459;SDS011;37534;39.772;2.718;2023-04-25T06:17:37;17.10;;;12.20;;
51459;SDS011;37534;39.772;2.718;2023-04-25T06:20:03;32.92;;;17.55;;
51459;SDS011;37534;39.772;2.718;2023-04-25T06:22:29;15.95;;;10.00;;
51459;SDS011;37534;39.772;2.718;2023-04-25T06:24:54;35.95;;;20.77;;
51459;SDS011;37534;39.772;2.718;2023-04-25T06:27:22;19.98;;;15.48;;
51459;SDS011;37534;39.772;2.718;2023-04-25T06:29:47;9.73;;;7.25;;
51459;SDS011;37534;39.772;2.718;2023-04-25T06:32:13;7.15;;;6.20;;
51459;SDS011;37534;39.772;2.718;2023-04-25T06:34:39;5.82;;;4.15;;
51459;SDS011;37534;39.772;2.718;2023-04-25T06:37:04;7.78;;;6.18;;
51459;SDS011;37534;39.772;2.718;2023-04-25T06:39:30;9.02;;;6.05;;
51459;SDS011;37534;39.772;2.718;2023-04-25T06:41:55;10.48;;;7.90;;
51459;SDS011;37534;39.772;2.718;2023-04-25T06:44:21;43.38;;;31.35;;
51459;SDS011;37534;39.772;2.718;2023-04-25T06:46:49;50.22;;;35.03;;
51459;SDS011;37534;39.772;2.718;2023-04-25T06:49:14;31.60;;;24.20;;
51459;SDS011;37534;39.772;2.718;2023-04-25T06:51:40;17.90;;;13.93;;
51459;SDS011;37534;39.772;2.718;2023-04-25T06:54:06;29.98;;;12.75;;
51459;SDS011;37534;39.772;2.718;2023-04-25T06:56:32;22.00;;;15.93;;
51459;SDS011;37534;39.772;2.718;2023-04-25T06:58:57;24.70;;;15.95;;
51459;SDS011;37534;39.772;2.718;2023-04-25T07:01:23;24.17;;;18.02;;
51459;SDS011;37534;39.772;2.718;2023-04-25T07:03:49;33.95;;;21.30;;
51459;SDS011;37534;39.772;2.718;2023-04-25T07:06:14;27.20;;;18.27;;
51459;SDS011;37534;39.772;2.718;2023-04-25T07:08:40;22.73;;;16.55;;
51459;SDS011;37534;39.772;2.718;2023-04-25T07:11:16;23.60;;;15.90;;
51459;SDS011;37534;39.772;2.718;2023-04-25T07:13:45;18.38;;;14.32;;
51459;SDS011;37534;39.772;2.718;2023-04-25T07:16:10;18.58;;;13.25;;
51459;SDS011;37534;39.772;2.718;2023-04-25T07:18:36;17.23;;;14.02;;
51459;SDS011;37534;39.772;2.718;2023-04-25T07:21:01;16.58;;;13.43;;
51459;SDS011;37534;39.772;2.718;2023-04-25T07:23:27;23.85;;;13.95;;
51459;SDS011;37534;39.772;2.718;2023-04-25T07:25:52;17.63;;;12.45;;
51459;SDS011;37534;39.772;2.718;2023-04-25T07:28:18;30.02;;;12.32;;
51459;SDS011;37534;39.772;2.718;2023-04-25T07:30:44;13.65;;;9.82;;
51459;SDS011;37534;39.772;2.718;2023-04-25T07:33:09;10.48;;;8.60;;
51459;SDS011;37534;39.772;2.718;2023-04-25T07:35:35;9.50;;;7.40;;
51459;SDS011;37534;39.772;2.718;2023-04-25T07:38:01;9.98;;;7.45;;
51459;SDS011;37534;39.772;2.718;2023-04-25T07:40:27;24.73;;;7.45;;
51459;SDS011;37534;39.772;2.718;2023-04-25T07:42:53;13.85;;;6.03;;
51459;SDS011;37534;39.772;2.718;2023-04-25T07:45:18;14.32;;;6.85;;
51459;SDS011;37534;39.772;2.718;2023-04-25T07:47:44;8.48;;;6.18;;
51459;SDS011;37534;39.772;2.718;2023-04-25T07:50:10;9.82;;;6.20;;
51459;SDS011;37534;39.772;2.718;2023-04-25T07:52:36;6.85;;;5.07;;
51459;SDS011;37534;39.772;2.718;2023-04-25T07:55:01;11.23;;;4.53;;
51459;SDS011;37534;39.772;2.718;2023-04-25T07:57:27;5.88;;;4.35;;
51459;SDS011;37534;39.772;2.718;2023-04-25T07:59:52;17.20;;;12.43;;
51459;SDS011;37534;39.772;2.718;2023-04-25T08:02:18;28.52;;;17.08;;
51459;SDS011;37534;39.772;2.718;2023-04-25T08:04:43;17.88;;;10.48;;
51459;SDS011;37534;39.772;2.718;2023-04-25T08:07:09;21.50;;;11.85;;
51459;SDS011;37534;39.772;2.718;2023-04-25T08:09:35;9.55;;;6.90;;
51459;SDS011;37534;39.772;2.718;2023-04-25T08:12:02;6.75;;;4.25;;
51459;SDS011;37534;39.772;2.718;2023-04-25T08:14:28;6.75;;;3.33;;
51459;SDS011;37534;39.772;2.718;2023-04-25T08:16:56;5.57;;;3.78;;
51459;SDS011;37534;39.772;2.718;2023-04-25T08:19:22;6.75;;;3.55;;
51459;SDS011;37534;39.772;2.718;2023-04-25T08:21:47;8.48;;;5.10;;
51459;SDS011;37534;39.772;2.718;2023-04-25T08:24:13;4.47;;;4.07;;
51459;SDS011;37534;39.772;2.718;2023-04-25T08:26:38;8.55;;;3.85;;
51459;SDS011;37534;39.772;2.718;2023-04-25T08:29:04;3.95;;;3.55;;
51459;SDS011;37534;39.772;2.718;2023-04-25T08:31:30;11.85;;;5.55;;
51459;SDS011;37534;39.772;2.718;2023-04-25T08:33:56;11.82;;;4.07;;
51459;SDS011;37534;39.772;2.718;2023-04-25T08:36:21;4.15;;;2.58;;
51459;SDS011;37534;39.772;2.718;2023-04-25T08:38:47;7.30;;;3.35;;
51459;SDS011;37534;39.772;2.718;2023-04-25T08:41:13;13.32;;;3.08;;
51459;SDS011;37534;39.772;2.718;2023-04-25T08:43:42;3.28;;;2.20;;
51459;SDS011;37534;39.772;2.718;2023-04-25T08:46:09;11.55;;;5.72;;
51459;SDS011;37534;39.772;2.718;2023-04-25T08:48:35;10.02;;;5.30;;
51459;SDS011;37534;39.772;2.718;2023-04-25T08:51:01;5.18;;;2.80;;
51459;SDS011;37534;39.772;2.718;2023-04-25T08:53:32;6.70;;;1.98;;
51459;SDS011;37534;39.772;2.718;2023-04-25T08:55:59;11.35;;;2.58;;
51459;SDS011;37534;39.772;2.718;2023-04-25T08:58:28;3.55;;;2.15;;
51459;SDS011;37534;39.772;2.718;2023-04-25T09:00:54;2.78;;;2.15;;
51459;SDS011;37534;39.772;2.718;2023-04-25T09:03:20;4.72;;;2.42;;
51459;SDS011;37534;39.772;2.718;2023-04-25T09:05:45;5.00;;;2.28;;
51459;SDS011;37534;39.772;2.718;2023-04-25T09:08:11;6.00;;;2.63;;
51459;SDS011;37534;39.772;2.718;2023-04-25T09:10:37;3.58;;;2.40;;
51459;SDS011;37534;39.772;2.718;2023-04-25T09:13:10;8.02;;;3.15;;
51459;SDS011;37534;39.772;2.718;2023-04-25T09:15:56;5.40;;;3.05;;
51459;SDS011;37534;39.772;2.718;2023-04-25T09:18:31;4.97;;;2.53;;
51459;SDS011;37534;39.772;2.718;2023-04-25T09:21:08;8.15;;;5.78;;
51459;SDS011;37534;39.772;2.718;2023-04-25T09:23:38;4.63;;;3.03;;
51459;SDS011;37534;39.772;2.718;2023-04-25T09:26:15;7.05;;;4.88;;
51459;SDS011;37534;39.772;2.718;2023-04-25T09:28:42;4.45;;;2.25;;
51459;SDS011;37534;39.772;2.718;2023-04-25T09:31:09;3.03;;;2.40;;
51459;SDS011;37534;39.772;2.718;2023-04-25T09:33:36;7.18;;;2.92;;
51459;SDS011;37534;39.772;2.718;2023-04-25T09:36:05;4.57;;;2.80;;
51459;SDS011;37534;39.772;2.718;2023-04-25T09:38:42;3.85;;;2.40;;
51459;SDS011;37534;39.772;2.718;2023-04-25T09:41:09;18.45;;;2.85;;
51459;SDS011;37534;39.772;2.718;2023-04-25T09:43:36;10.15;;;3.50;;
51459;SDS011;37534;39.772;2.718;2023-04-25T09:46:02;4.55;;;2.75;;
51459;SDS011;37534;39.772;2.718;2023-04-25T09:48:28;3.13;;;2.47;;
51459;SDS011;37534;39.772;2.718;2023-04-25T09:51:07;6.50;;;3.20;;
51459;SDS011;37534;39.772;2.718;2023-04-25T09:53:43;5.78;;;2.78;;
51459;SDS011;37534;39.772;2.718;2023-04-25T09:56:10;7.30;;;2.30;;
51459;SDS011;37534;39.772;2.718;2023-04-25T09:58:37;5.32;;;3.10;;
51459;SDS011;37534;39.772;2.718;2023-04-25T10:01:05;4.05;;;2.35;;
51459;SDS011;37534;39.772;2.718;2023-04-25T10:03:33;22.02;;;3.80;;
51459;SDS011;37534;39.772;2.718;2023-04-25T10:06:00;4.00;;;2.58;;
51459;SDS011;37534;39.772;2.718;2023-04-25T10:08:34;6.10;;;2.72;;
51459;SDS011;37534;39.772;2.718;2023-04-25T10:11:03;5.35;;;2.33;;
51459;SDS011;37534;39.772;2.718;2023-04-25T10:13:32;5.28;;;2.67;;
51459;SDS011;37534;39.772;2.718;2023-04-25T10:15:59;8.32;;;3.33;;
51459;SDS011;37534;39.772;2.718;2023-04-25T10:18:26;10.85;;;3.60;;
51459;SDS011;37534;39.772;2.718;2023-04-25T10:20:54;8.23;;;3.10;;
51459;SDS011;37534;39.772;2.718;2023-04-25T10:23:21;5.57;;;3.08;;
51459;SDS011;37534;39.772;2.718;2023-04-25T10:25:47;9.75;;;3.38;;
51459;SDS011;37534;39.772;2.718;2023-04-25T10:28:14;7.55;;;4.05;;
51459;SDS011;37534;39.772;2.718;2023-04-25T10:30:56;8.00;;;3.58;;
51459;SDS011;37534;39.772;2.718;2023-04-25T10:33:39;4.63;;;3.15;;
51459;SDS011;37534;39.772;2.718;2023-04-25T10:36:13;18.58;;;5.00;;
51459;SDS011;37534;39.772;2.718;2023-04-25T10:38:42;5.25;;;3.35;;
51459;SDS011;37534;39.772;2.718;2023-04-25T10:41:10;6.93;;;3.55;;
51459;SDS011;37534;39.772;2.718;2023-04-25T10:48:52;5.40;;;3.03;;
51459;SDS011;37534;39.772;2.718;2023-04-25T10:51:39;6.18;;;3.22;;
51459;SDS011;37534;39.772;2.718;2023-04-25T10:54:07;8.00;;;3.80;;
51459;SDS011;37534;39.772;2.718;2023-04-25T10:56:40;6.72;;;3.47;;
51459;SDS011;37534;39.772;2.718;2023-04-25T10:59:18;4.57;;;2.63;;
51459;SDS011;37534;39.772;2.718;2023-04-25T11:01:46;10.23;;;3.00;;
51459;SDS011;37534;39.772;2.718;2023-04-25T11:04:24;8.98;;;3.15;;
51459;SDS011;37534;39.772;2.718;2023-04-25T11:09:32;6.55;;;3.03;;
51459;SDS011;37534;39.772;2.718;2023-04-25T11:11:58;10.35;;;2.85;;
51459;SDS011;37534;39.772;2.718;2023-04-25T11:14:25;5.88;;;2.55;;
51459;SDS011;37534;39.772;2.718;2023-04-25T11:16:58;5.72;;;2.50;;
51459;SDS011;37534;39.772;2.718;2023-04-25T11:19:24;5.18;;;2.42;;
51459;SDS011;37534;39.772;2.718;2023-04-25T11:21:54;10.13;;;2.45;;
51459;SDS011;37534;39.772;2.718;2023-04-25T11:27:00;5.47;;;2.10;;
51459;SDS011;37534;39.772;2.718;2023-04-25T11:29:31;15.02;;;2.65;;
51459;SDS011;37534;39.772;2.718;2023-04-25T11:31:57;7.57;;;1.73;;
51459;SDS011;37534;39.772;2.718;2023-04-25T11:34:27;16.90;;;2.85;;
51459;SDS011;37534;39.772;2.718;2023-04-25T11:36:55;5.78;;;1.88;;
51459;SDS011;37534;39.772;2.718;2023-04-25T11:39:21;6.25;;;2.42;;
51459;SDS011;37534;39.772;2.718;2023-04-25T11:41:49;3.30;;;2.17;;
51459;SDS011;37534;39.772;2.718;2023-04-25T11:44:15;7.28;;;2.38;;
51459;SDS011;37534;39.772;2.718;2023-04-25T11:46:42;2.22;;;1.73;;
51459;SDS011;37534;39.772;2.718;2023-04-25T11:49:08;2.38;;;1.73;;
51459;SDS011;37534;39.772;2.718;2023-04-25T11:51:47;3.78;;;1.95;;
51459;SDS011;37534;39.772;2.718;2023-04-25T11:54:13;4.57;;;2.20;;
51459;SDS011;37534;39.772;2.718;2023-04-25T11:56:43;5.65;;;1.25;;
51459;SDS011;37534;39.772;2.718;2023-04-25T11:59:10;3.30;;;1.60;;
51459;SDS011;37534;39.772;2.718;2023-04-25T12:01:38;3.08;;;1.88;;
51459;SDS011;37534;39.772;2.718;2023-04-25T12:04:12;5.03;;;2.28;;
51459;SDS011;37534;39.772;2.718;2023-04-25T12:06:42;7.32;;;1.58;;
51459;SDS011;37534;39.772;2.718;2023-04-25T12:09:09;2.53;;;1.17;;
51459;SDS011;37534;39.772;2.718;2023-04-25T12:11:45;2.35;;;1.38;;
51459;SDS011;37534;39.772;2.718;2023-04-25T12:14:12;1.50;;;1.38;;
51459;SDS011;37534;39.772;2.718;2023-04-25T12:16:47;2.50;;;1.52;;
51459;SDS011;37534;39.772;2.718;2023-04-25T12:19:17;1.73;;;1.42;;
51459;SDS011;37534;39.772;2.718;2023-04-25T12:21:44;1.60;;;1.08;;
51459;SDS011;37534;39.772;2.718;2023-04-25T12:24:14;9.02;;;1.42;;
51459;SDS011;37534;39.772;2.718;2023-04-25T12:26:47;2.25;;;1.45;;
51459;SDS011;37534;39.772;2.718;2023-04-25T12:29:19;4.53;;;1.10;;
51459;SDS011;37534;39.772;2.718;2023-04-25T12:31:45;7.43;;;1.20;;
51459;SDS011;37534;39.772;2.718;2023-04-25T12:34:11;3.47;;;1.50;;
51459;SDS011;37534;39.772;2.718;2023-04-25T12:36:37;0.80;;;0.77;;
51459;SDS011;37534;39.772;2.718;2023-04-25T12:39:03;6.47;;;1.30;;
51459;SDS011;37534;39.772;2.718;2023-04-25T12:41:29;3.53;;;1.20;;
51459;SDS011;37534;39.772;2.718;2023-04-25T12:43:55;5.93;;;1.30;;
51459;SDS011;37534;39.772;2.718;2023-04-25T12:46:21;5.45;;;1.02;;
51459;SDS011;37534;39.772;2.718;2023-04-25T12:48:48;4.13;;;1.70;;
51459;SDS011;37534;39.772;2.718;2023-04-25T12:51:13;4.28;;;1.27;;
51459;SDS011;37534;39.772;2.718;2023-04-25T12:53:39;3.00;;;1.40;;
51459;SDS011;37534;39.772;2.718;2023-04-25T12:56:09;3.15;;;1.55;;
51459;SDS011;37534;39.772;2.718;2023-04-25T12:58:34;1.38;;;0.75;;
51459;SDS011;37534;39.772;2.718;2023-04-25T13:01:00;1.50;;;1.00;;
51459;SDS011;37534;39.772;2.718;2023-04-25T13:03:26;1.55;;;1.08;;
51459;SDS011;37534;39.772;2.718;2023-04-25T13:05:51;1.70;;;1.02;;
51459;SDS011;37534;39.772;2.718;2023-04-25T13:08:18;1.25;;;1.05;;
51459;SDS011;37534;39.772;2.718;2023-04-25T13:10:44;2.60;;;0.85;;
51459;SDS011;37534;39.772;2.718;2023-04-25T13:13:10;4.53;;;0.93;;
51459;SDS011;37534;39.772;2.718;2023-04-25T13:15:35;0.82;;;0.60;;
51459;SDS011;37534;39.772;2.718;2023-04-25T13:18:02;3.50;;;0.95;;
51459;SDS011;37534;39.772;2.718;2023-04-25T13:20:30;4.85;;;0.88;;
51459;SDS011;37534;39.772;2.718;2023-04-25T13:22:56;1.52;;;0.82;;
51459;SDS011;37534;39.772;2.718;2023-04-25T13:25:22;6.13;;;1.10;;
51459;SDS011;37534;39.772;2.718;2023-04-25T13:27:49;0.77;;;0.77;;
51459;SDS011;37534;39.772;2.718;2023-04-25T13:30:14;3.22;;;1.20;;
51459;SDS011;37534;39.772;2.718;2023-04-25T13:32:40;2.45;;;1.08;;
51459;SDS011;37534;39.772;2.718;2023-04-25T13:35:10;2.10;;;1.00;;
51459;SDS011;37534;39.772;2.718;2023-04-25T13:37:38;2.63;;;1.08;;
51459;SDS011;37534;39.772;2.718;2023-04-25T13:40:04;5.20;;;1.17;;
51459;SDS011;37534;39.772;2.718;2023-04-25T13:42:34;2.38;;;1.33;;
51459;SDS011;37534;39.772;2.718;2023-04-25T13:45:00;1.20;;;0.98;;
51459;SDS011;37534;39.772;2.718;2023-04-25T13:47:26;2.20;;;1.00;;
51459;SDS011;37534;39.772;2.718;2023-04-25T13:49:52;6.78;;;1.05;;
51459;SDS011;37534;39.772;2.718;2023-04-25T13:52:19;2.72;;;1.25;;
51459;SDS011;37534;39.772;2.718;2023-04-25T13:54:45;2.50;;;1.10;;
51459;SDS011;37534;39.772;2.718;2023-04-25T13:57:11;5.78;;;1.10;;
51459;SDS011;37534;39.772;2.718;2023-04-25T13:59:37;1.50;;;1.15;;
51459;SDS011;37534;39.772;2.718;2023-04-25T14:02:03;6.93;;;1.58;;
51459;SDS011;37534;39.772;2.718;2023-04-25T14:04:28;2.08;;;1.02;;
51459;SDS011;37534;39.772;2.718;2023-04-25T14:06:55;5.95;;;1.23;;
51459;SDS011;37534;39.772;2.718;2023-04-25T14:09:20;1.65;;;1.23;;
51459;SDS011;37534;39.772;2.718;2023-04-25T14:11:50;3.88;;;1.38;;
51459;SDS011;37534;39.772;2.718;2023-04-25T14:14:17;7.45;;;1.48;;
51459;SDS011;37534;39.772;2.718;2023-04-25T14:16:43;1.73;;;1.10;;
51459;SDS011;37534;39.772;2.718;2023-04-25T14:19:08;1.50;;;1.17;;
51459;SDS011;37534;39.772;2.718;2023-04-25T14:21:34;1.30;;;1.20;;
51459;SDS011;37534;39.772;2.718;2023-04-25T14:24:00;0.98;;;0.77;;
51459;SDS011;37534;39.772;2.718;2023-04-25T14:26:25;1.92;;;1.08;;
51459;SDS011;37534;39.772;2.718;2023-04-25T14:28:51;2.78;;;0.82;;
51459;SDS011;37534;39.772;2.718;2023-04-25T14:31:17;1.13;;;0.90;;
51459;SDS011;37534;39.772;2.718;2023-04-25T14:33:43;1.75;;;0.85;;
51459;SDS011;37534;39.772;2.718;2023-04-25T14:36:08;2.75;;;1.20;;
51459;SDS011;37534;39.772;2.718;2023-04-25T14:38:35;1.98;;;1.00;;
51459;SDS011;37534;39.772;2.718;2023-04-25T14:41:00;1.13;;;0.90;;
51459;SDS011;37534;39.772;2.718;2023-04-25T14:43:26;1.17;;;0.85;;
51459;SDS011;37534;39.772;2.718;2023-04-25T14:45:51;1.75;;;0.80;;
51459;SDS011;37534;39.772;2.718;2023-04-25T14:48:17;2.05;;;1.15;;
51459;SDS011;37534;39.772;2.718;2023-04-25T14:50:44;0.65;;;0.60;;
51459;SDS011;37534;39.772;2.718;2023-04-25T14:53:10;2.08;;;0.75;;
51459;SDS011;37534;39.772;2.718;2023-04-25T14:55:36;0.90;;;0.75;;
51459;SDS011;37534;39.772;2.718;2023-04-25T14:58:01;0.70;;;0.70;;
51459;SDS011;37534;39.772;2.718;2023-04-25T15:00:27;3.53;;;0.90;;
51459;SDS011;37534;39.772;2.718;2023-04-25T15:02:52;1.63;;;0.70;;
51459;SDS011;37534;39.772;2.718;2023-04-25T15:05:18;1.35;;;0.82;;
51459;SDS011;37534;39.772;2.718;2023-04-25T15:07:44;1.90;;;0.90;;
51459;SDS011;37534;39.772;2.718;2023-04-25T15:10:10;8.02;;;0.98;;
51459;SDS011;37534;39.772;2.718;2023-04-25T15:12:40;1.27;;;1.08;;
51459;SDS011;37534;39.772;2.718;2023-04-25T15:15:07;1.35;;;1.02;;
51459;SDS011;37534;39.772;2.718;2023-04-25T15:17:46;2.20;;;0.88;;
51459;SDS011;37534;39.772;2.718;2023-04-25T15:20:12;1.88;;;0.80;;
51459;SDS011;37534;39.772;2.718;2023-04-25T15:22:39;1.00;;;0.85;;
51459;SDS011;37534;39.772;2.718;2023-04-25T15:25:06;1.48;;;0.90;;